Lethbridge, Canada
Current Conditions -  °F | °C
As of 8:00 AM on Friday 31 Oct 2014 (Local Time) from CYQL Reporting Station
Broken Clouds Broken Clouds  
Wind Chill: 39°   Ceiling: 18000
Heat Index: 43°   Visibility: 30mi
Dew Point: 36°   Wind: 6mph
Humidity: 76%   Direction: 200°SSW
Pressure: 29.72"   Gusts: 22mph
Location:  49.69°N, 112.83°W
Report Text: CYQL 311400Z 20005G19KT 30SM BKN180 BKN250 06/02 A2972 RMK AC5CI2 SLP080
Loading
Personal Weather Stations






























Interactive Weather Map
Tropical Storm Tracking
New forecast layout! Learn more

10-Day Weather Forecast

Advertisements
Track Severe Weather on mobile